createdAt,value
2022-11-10T00:01:10.176Z,1016.3
2022-11-10T00:06:10.164Z,1016.4
2022-11-10T00:11:10.174Z,1016.4
2022-11-10T00:16:12.670Z,1016.5
2022-11-10T00:21:10.217Z,1016.5
2022-11-10T00:26:10.201Z,1016.6
2022-11-10T00:31:10.136Z,1016.6
2022-11-10T00:41:10.100Z,1016.6
2022-11-10T00:46:10.066Z,1016.7
2022-11-10T00:51:10.047Z,1016.8
2022-11-10T00:56:10.141Z,1016.8
2022-11-10T01:01:10.119Z,1016.9
2022-11-10T01:06:09.997Z,1016.9
2022-11-10T01:11:10.006Z,1016.8
2022-11-10T01:16:09.956Z,1016.8
2022-11-10T01:21:09.917Z,1016.8
2022-11-10T01:26:09.895Z,1016.8
2022-11-10T01:31:09.850Z,1016.8
2022-11-10T01:36:09.898Z,1016.8
2022-11-10T01:41:09.899Z,1016.9
2022-11-10T01:46:11.857Z,1016.9
2022-11-10T01:51:09.794Z,1017.0
2022-11-10T01:56:09.864Z,1017.1
2022-11-10T02:01:09.850Z,1017.1
2022-11-10T02:16:10.060Z,1017.0
2022-11-10T02:26:10.827Z,1017.1
2022-11-10T02:31:09.758Z,1017.2
2022-11-10T02:36:09.656Z,1017.1
2022-11-10T02:41:09.594Z,1017.1
2022-11-10T02:46:09.596Z,1017.2
2022-11-10T02:51:09.516Z,1017.1
2022-11-10T02:56:09.462Z,1017.1
2022-11-10T03:01:09.488Z,1017.2
2022-11-10T03:06:11.405Z,1017.2
2022-11-10T03:11:09.348Z,1017.2
2022-11-10T03:16:09.329Z,1017.3
2022-11-10T03:21:09.300Z,1017.3
2022-11-10T03:26:11.251Z,1017.3
2022-11-10T03:31:09.202Z,1017.4
2022-11-10T03:36:09.128Z,1017.4
2022-11-10T03:41:20.532Z,1017.4
2022-11-10T03:46:09.021Z,1017.5
2022-11-10T03:51:08.947Z,1017.6
2022-11-10T03:56:08.962Z,1017.6
2022-11-10T04:01:11.362Z,1017.5
2022-11-10T04:06:08.822Z,1017.6
2022-11-10T04:11:08.848Z,1017.6
2022-11-10T04:16:08.807Z,1017.7
2022-11-10T04:21:08.799Z,1017.7
2022-11-10T04:26:08.800Z,1017.6
2022-11-10T04:31:08.765Z,1017.7
2022-11-10T04:36:08.782Z,1017.7
2022-11-10T04:41:08.764Z,1017.8
2022-11-10T04:46:08.837Z,1017.8
2022-11-10T04:51:08.762Z,1017.7
2022-11-10T04:56:10.878Z,1017.8
2022-11-10T05:01:13.055Z,1017.9
2022-11-10T05:06:11.438Z,1018.0
2022-11-10T05:16:11.029Z,1018.2
2022-11-10T05:21:09.049Z,1018.2
2022-11-10T05:26:09.130Z,1018.3
2022-11-10T05:36:09.293Z,1018.4
2022-11-10T05:41:09.321Z,1018.4
2022-11-10T05:46:09.399Z,1018.3
2022-11-10T05:51:09.509Z,1018.3
2022-11-10T05:56:09.551Z,1018.2
2022-11-10T06:01:09.601Z,1018.2
2022-11-10T06:06:12.158Z,1018.2
2022-11-10T06:11:12.203Z,1018.3
2022-11-10T06:16:09.811Z,1018.3
2022-11-10T06:21:09.901Z,1018.3
2022-11-10T06:26:09.917Z,1018.5
2022-11-10T06:31:09.981Z,1018.6
2022-11-10T06:36:14.162Z,1018.6
2022-11-10T06:41:10.220Z,1018.6
2022-11-10T06:46:11.262Z,1018.7
2022-11-10T06:56:10.452Z,1018.6
2022-11-10T07:01:10.605Z,1018.7
2022-11-10T07:06:14.651Z,1018.7
2022-11-10T07:11:12.779Z,1018.6
2022-11-10T07:16:10.858Z,1018.8
2022-11-10T07:21:10.898Z,1018.8
2022-11-10T07:26:11.016Z,1018.8
2022-11-10T07:36:11.229Z,1019.0
2022-11-10T07:41:13.848Z,1019.0
2022-11-10T07:46:13.934Z,1019.2
2022-11-10T07:56:11.787Z,1019.2
2022-11-10T08:01:12.193Z,1019.3
2022-11-10T08:06:12.084Z,1019.3
2022-11-10T08:11:12.147Z,1019.4
2022-11-10T08:16:13.696Z,1019.4
2022-11-10T08:26:12.889Z,1019.4
2022-11-10T08:31:12.644Z,1019.5
2022-11-10T08:36:12.786Z,1019.6
2022-11-10T08:41:12.939Z,1019.5
2022-11-10T08:46:13.025Z,1019.6
2022-11-10T08:51:13.155Z,1019.6
2022-11-10T08:56:13.284Z,1019.7
2022-11-10T09:01:13.457Z,1019.8
2022-11-10T09:06:13.536Z,1020.0
2022-11-10T09:11:16.903Z,1020.0
2022-11-10T09:16:13.821Z,1020.1
2022-11-10T09:21:13.949Z,1020.1
2022-11-10T09:26:14.126Z,1020.2
2022-11-10T09:31:14.265Z,1020.2
2022-11-10T09:36:14.412Z,1020.2
2022-11-10T09:41:14.526Z,1020.2
2022-11-10T09:46:14.683Z,1020.3
2022-11-10T09:51:14.874Z,1020.3
2022-11-10T09:56:14.941Z,1020.4
2022-11-10T10:06:15.298Z,1020.4
2022-11-10T10:11:15.494Z,1020.5
2022-11-10T10:16:15.634Z,1020.6
2022-11-10T10:21:17.213Z,1020.7
2022-11-10T10:26:16.040Z,1020.8
2022-11-10T10:31:16.329Z,1020.9
2022-11-10T10:36:16.424Z,1020.9
2022-11-10T10:41:23.629Z,1020.9
2022-11-10T10:46:17.555Z,1021.0
2022-11-10T10:51:16.998Z,1021.0
2022-11-10T10:56:17.242Z,1021.0
2022-11-10T11:01:17.509Z,1020.9
2022-11-10T11:11:17.809Z,1020.9
2022-11-10T11:16:18.045Z,1021.1
2022-11-10T11:21:18.226Z,1021.0
2022-11-10T11:26:18.428Z,1021.1
2022-11-10T11:31:18.628Z,1021.0
2022-11-10T11:36:18.791Z,1021.0
2022-11-10T11:41:19.002Z,1020.9
2022-11-10T11:46:19.200Z,1020.9
2022-11-10T11:51:19.413Z,1020.8
2022-11-10T11:56:19.662Z,1020.7
2022-11-10T12:01:19.973Z,1020.8
2022-11-10T12:06:22.228Z,1020.9
2022-11-10T12:11:20.331Z,1021.0
2022-11-10T12:16:20.622Z,1021.0
2022-11-10T12:21:20.869Z,1020.9
2022-11-10T12:26:21.060Z,1020.9
2022-11-10T12:31:21.278Z,1020.8
2022-11-10T12:36:21.462Z,1020.7
2022-11-10T12:41:21.648Z,1020.8
2022-11-10T12:46:21.827Z,1020.9
2022-11-10T12:51:21.989Z,1020.8
2022-11-10T12:56:22.175Z,1020.8
2022-11-10T13:01:22.424Z,1020.9
2022-11-10T13:11:22.762Z,1020.8
2022-11-10T13:16:22.961Z,1020.9
2022-11-10T13:21:23.129Z,1020.9
2022-11-10T13:26:23.288Z,1020.9
2022-11-10T13:31:24.018Z,1021.1
2022-11-10T13:36:25.617Z,1021.2
2022-11-10T13:41:23.757Z,1021.2
2022-11-10T13:46:23.923Z,1021.4
2022-11-10T13:56:24.229Z,1021.6
2022-11-10T14:01:24.335Z,1021.7
2022-11-10T14:06:24.467Z,1021.5
2022-11-10T14:11:24.651Z,1021.5
2022-11-10T14:16:24.848Z,1021.5
2022-11-10T14:21:24.972Z,1021.5
2022-11-10T14:26:25.142Z,1021.5
2022-11-10T14:31:25.291Z,1021.4
2022-11-10T14:36:25.436Z,1021.5
2022-11-10T14:41:25.564Z,1021.5
2022-11-10T14:51:25.949Z,1021.6
2022-11-10T14:56:26.087Z,1021.6
2022-11-10T15:01:26.219Z,1021.7
2022-11-10T15:06:28.114Z,1021.6
2022-11-10T15:11:28.954Z,1021.8
2022-11-10T15:16:26.617Z,1021.8
2022-11-10T15:21:26.774Z,1021.9
2022-11-10T15:26:26.979Z,1022.0
2022-11-10T15:31:27.106Z,1022.1
2022-11-10T15:36:27.273Z,1022.1
2022-11-10T15:41:27.851Z,1022.0
2022-11-10T15:46:27.675Z,1022.1
2022-11-10T15:56:29.975Z,1022.0
2022-11-10T16:01:28.093Z,1022.0
2022-11-10T16:06:28.227Z,1022.0
2022-11-10T16:11:28.326Z,1022.0
2022-11-10T16:16:28.509Z,1022.2
2022-11-10T16:21:28.608Z,1022.2
2022-11-10T16:26:28.795Z,1022.1
2022-11-10T16:31:28.933Z,1022.0
2022-11-10T16:36:29.096Z,1022.0
2022-11-10T16:41:29.207Z,1022.1
2022-11-10T16:46:29.353Z,1022.2
2022-11-10T16:51:29.532Z,1022.3
2022-11-10T16:56:29.729Z,1022.3
2022-11-10T17:01:29.880Z,1022.4
2022-11-10T17:06:30.009Z,1022.4
2022-11-10T17:11:30.099Z,1022.5
2022-11-10T17:16:30.235Z,1022.4
2022-11-10T17:21:33.074Z,1022.4
2022-11-10T17:26:30.523Z,1022.3
2022-11-10T17:36:30.809Z,1022.5
2022-11-10T17:41:30.940Z,1022.5
2022-11-10T17:46:31.118Z,1022.5
2022-11-10T18:01:31.697Z,1022.5
2022-11-10T18:06:31.996Z,1022.4
2022-11-10T18:11:32.060Z,1022.4
2022-11-10T18:16:35.808Z,1022.4
2022-11-10T18:21:32.320Z,1022.5
2022-11-10T18:26:32.460Z,1022.7
2022-11-10T18:31:32.637Z,1022.7
2022-11-10T18:36:32.795Z,1022.7
2022-11-10T18:41:32.927Z,1022.6
2022-11-10T18:46:33.101Z,1022.6
2022-11-10T18:51:33.263Z,1022.7
2022-11-10T18:56:33.368Z,1022.7
2022-11-10T19:01:37.569Z,1022.5
2022-11-10T19:06:33.745Z,1022.5
2022-11-10T19:11:33.838Z,1022.5
2022-11-10T19:16:36.122Z,1022.6
2022-11-10T19:21:34.239Z,1022.7
2022-11-10T19:26:36.829Z,1022.7
2022-11-10T19:31:36.991Z,1022.8
2022-11-10T19:36:34.722Z,1022.9
2022-11-10T19:41:36.318Z,1022.9
2022-11-10T19:46:34.981Z,1022.9
2022-11-10T19:51:35.167Z,1023.0
2022-11-10T19:56:35.373Z,1023.0
2022-11-10T20:06:35.816Z,1023.1
2022-11-10T20:11:35.935Z,1023.0
2022-11-10T20:16:36.077Z,1023.0
2022-11-10T20:21:36.366Z,1023.0
2022-11-10T20:26:36.484Z,1023.0
2022-11-10T20:31:39.134Z,1023.0
2022-11-10T20:36:36.766Z,1023.0
2022-11-10T20:41:39.139Z,1023.1
2022-11-10T20:46:55.133Z,1023.1
2022-11-10T20:51:37.359Z,1023.3
2022-11-10T20:56:37.590Z,1023.3
2022-11-10T21:01:37.957Z,1023.4
2022-11-10T21:06:38.033Z,1023.5
2022-11-10T21:11:38.223Z,1023.5
2022-11-10T21:16:38.434Z,1023.5
2022-11-10T21:21:38.713Z,1023.6
2022-11-10T21:26:38.847Z,1023.6
2022-11-10T21:31:39.034Z,1023.7
2022-11-10T21:36:39.222Z,1023.6
2022-11-10T21:41:39.390Z,1023.7
2022-11-10T21:46:43.587Z,1023.8
2022-11-10T21:51:39.753Z,1023.9
2022-11-10T21:56:39.934Z,1023.9
2022-11-10T22:01:41.357Z,1023.8
2022-11-10T22:06:42.354Z,1023.7
2022-11-10T22:11:40.406Z,1023.7
2022-11-10T22:16:40.636Z,1023.8
2022-11-10T22:21:41.947Z,1023.8
2022-11-10T22:26:40.900Z,1023.7
2022-11-10T22:31:41.063Z,1023.7
2022-11-10T22:36:41.279Z,1023.7
2022-11-10T22:46:43.590Z,1023.9
2022-11-10T22:51:41.824Z,1023.9
2022-11-10T22:56:42.022Z,1023.9
2022-11-10T23:01:42.217Z,1023.9
2022-11-10T23:06:44.397Z,1024.0
2022-11-10T23:11:42.461Z,1024.0
2022-11-10T23:21:47.327Z,1024.1
2022-11-10T23:26:42.957Z,1024.1
2022-11-10T23:31:45.440Z,1024.1
2022-11-10T23:36:43.280Z,1024.1
2022-11-10T23:41:43.495Z,1024.1
2022-11-10T23:46:47.763Z,1024.0
2022-11-10T23:51:43.836Z,1023.9
